sensor_id;sensor_type;location;lat;lon;timestamp;P1;durP1;ratioP1;P2;durP2;ratioP2
20124;SDS011;10223;50.862;4.360;2023-04-06T00:00:26;17.13;;;9.33;;
20124;SDS011;10223;50.862;4.360;2023-04-06T00:02:53;20.53;;;9.73;;
20124;SDS011;10223;50.862;4.360;2023-04-06T00:05:20;18.10;;;9.33;;
20124;SDS011;10223;50.862;4.360;2023-04-06T00:07:48;17.80;;;9.73;;
20124;SDS011;10223;50.862;4.360;2023-04-06T00:10:16;21.37;;;9.73;;
20124;SDS011;10223;50.862;4.360;2023-04-06T00:12:43;18.43;;;9.40;;
20124;SDS011;10223;50.862;4.360;2023-04-06T00:15:10;19.43;;;9.27;;
20124;SDS011;10223;50.862;4.360;2023-04-06T00:17:37;19.60;;;9.97;;
20124;SDS011;10223;50.862;4.360;2023-04-06T00:20:04;17.90;;;9.57;;
20124;SDS011;10223;50.862;4.360;2023-04-06T00:22:33;18.83;;;9.87;;
20124;SDS011;10223;50.862;4.360;2023-04-06T00:25:00;17.33;;;9.87;;
20124;SDS011;10223;50.862;4.360;2023-04-06T00:27:28;20.30;;;9.60;;
20124;SDS011;10223;50.862;4.360;2023-04-06T00:29:56;18.83;;;10.03;;
20124;SDS011;10223;50.862;4.360;2023-04-06T00:32:22;20.90;;;10.17;;
20124;SDS011;10223;50.862;4.360;2023-04-06T00:34:49;17.17;;;9.27;;
20124;SDS011;10223;50.862;4.360;2023-04-06T00:37:16;19.23;;;9.90;;
20124;SDS011;10223;50.862;4.360;2023-04-06T00:39:44;17.10;;;9.57;;
20124;SDS011;10223;50.862;4.360;2023-04-06T00:42:11;18.93;;;10.13;;
20124;SDS011;10223;50.862;4.360;2023-04-06T00:44:40;21.93;;;9.30;;
20124;SDS011;10223;50.862;4.360;2023-04-06T00:47:08;16.57;;;9.17;;
20124;SDS011;10223;50.862;4.360;2023-04-06T00:49:35;19.30;;;9.50;;
20124;SDS011;10223;50.862;4.360;2023-04-06T00:52:02;18.73;;;9.53;;
20124;SDS011;10223;50.862;4.360;2023-04-06T00:54:29;18.43;;;9.40;;
20124;SDS011;10223;50.862;4.360;2023-04-06T00:56:56;17.53;;;9.27;;
20124;SDS011;10223;50.862;4.360;2023-04-06T00:59:23;18.13;;;9.43;;
20124;SDS011;10223;50.862;4.360;2023-04-06T01:01:52;17.93;;;10.10;;
20124;SDS011;10223;50.862;4.360;2023-04-06T01:04:19;19.40;;;9.73;;
20124;SDS011;10223;50.862;4.360;2023-04-06T01:06:47;19.47;;;9.93;;
20124;SDS011;10223;50.862;4.360;2023-04-06T01:09:14;20.50;;;10.53;;
20124;SDS011;10223;50.862;4.360;2023-04-06T01:11:41;15.27;;;9.10;;
20124;SDS011;10223;50.862;4.360;2023-04-06T01:14:08;22.90;;;9.50;;
20124;SDS011;10223;50.862;4.360;2023-04-06T01:16:36;19.27;;;9.70;;
20124;SDS011;10223;50.862;4.360;2023-04-06T01:19:08;15.80;;;9.23;;
20124;SDS011;10223;50.862;4.360;2023-04-06T01:21:35;21.30;;;9.63;;
20124;SDS011;10223;50.862;4.360;2023-04-06T01:24:04;18.17;;;9.67;;
20124;SDS011;10223;50.862;4.360;2023-04-06T01:26:32;19.50;;;10.40;;
20124;SDS011;10223;50.862;4.360;2023-04-06T01:29:01;18.40;;;10.03;;
20124;SDS011;10223;50.862;4.360;2023-04-06T01:31:28;20.33;;;10.27;;
20124;SDS011;10223;50.862;4.360;2023-04-06T01:33:55;19.53;;;11.07;;
20124;SDS011;10223;50.862;4.360;2023-04-06T01:36:22;19.40;;;10.20;;
20124;SDS011;10223;50.862;4.360;2023-04-06T01:38:50;19.17;;;10.70;;
20124;SDS011;10223;50.862;4.360;2023-04-06T01:41:18;18.00;;;9.93;;
20124;SDS011;10223;50.862;4.360;2023-04-06T01:43:46;23.27;;;10.80;;
20124;SDS011;10223;50.862;4.360;2023-04-06T01:46:14;21.57;;;10.70;;
20124;SDS011;10223;50.862;4.360;2023-04-06T01:48:41;18.67;;;10.40;;
20124;SDS011;10223;50.862;4.360;2023-04-06T01:51:08;19.27;;;10.67;;
20124;SDS011;10223;50.862;4.360;2023-04-06T01:53:35;20.97;;;11.03;;
20124;SDS011;10223;50.862;4.360;2023-04-06T01:56:02;21.53;;;11.20;;
20124;SDS011;10223;50.862;4.360;2023-04-06T01:58:30;22.57;;;11.33;;
20124;SDS011;10223;50.862;4.360;2023-04-06T02:00:57;22.10;;;10.80;;
20124;SDS011;10223;50.862;4.360;2023-04-06T02:03:24;23.27;;;11.17;;
20124;SDS011;10223;50.862;4.360;2023-04-06T02:05:51;19.97;;;10.60;;
20124;SDS011;10223;50.862;4.360;2023-04-06T02:08:18;20.43;;;10.27;;
20124;SDS011;10223;50.862;4.360;2023-04-06T02:10:44;18.53;;;9.70;;
20124;SDS011;10223;50.862;4.360;2023-04-06T02:13:11;21.57;;;10.73;;
20124;SDS011;10223;50.862;4.360;2023-04-06T02:15:40;21.30;;;10.90;;
20124;SDS011;10223;50.862;4.360;2023-04-06T02:18:07;20.63;;;9.70;;
20124;SDS011;10223;50.862;4.360;2023-04-06T02:20:35;23.83;;;11.23;;
20124;SDS011;10223;50.862;4.360;2023-04-06T02:23:01;17.20;;;10.03;;
20124;SDS011;10223;50.862;4.360;2023-04-06T02:25:28;19.83;;;10.83;;
20124;SDS011;10223;50.862;4.360;2023-04-06T02:27:55;22.23;;;10.77;;
20124;SDS011;10223;50.862;4.360;2023-04-06T02:30:22;21.63;;;10.80;;
20124;SDS011;10223;50.862;4.360;2023-04-06T02:32:50;21.07;;;11.43;;
20124;SDS011;10223;50.862;4.360;2023-04-06T02:35:17;20.43;;;10.30;;
20124;SDS011;10223;50.862;4.360;2023-04-06T02:37:44;22.00;;;11.07;;
20124;SDS011;10223;50.862;4.360;2023-04-06T02:40:11;19.93;;;10.70;;
20124;SDS011;10223;50.862;4.360;2023-04-06T02:42:40;19.53;;;11.03;;
20124;SDS011;10223;50.862;4.360;2023-04-06T02:45:07;20.13;;;10.60;;
20124;SDS011;10223;50.862;4.360;2023-04-06T02:47:34;18.83;;;10.50;;
20124;SDS011;10223;50.862;4.360;2023-04-06T02:50:03;19.63;;;10.73;;
20124;SDS011;10223;50.862;4.360;2023-04-06T02:52:30;20.37;;;10.80;;
20124;SDS011;10223;50.862;4.360;2023-04-06T02:54:57;18.90;;;10.30;;
20124;SDS011;10223;50.862;4.360;2023-04-06T02:57:24;18.33;;;10.20;;
20124;SDS011;10223;50.862;4.360;2023-04-06T02:59:51;21.43;;;11.23;;
20124;SDS011;10223;50.862;4.360;2023-04-06T03:02:18;17.73;;;10.37;;
20124;SDS011;10223;50.862;4.360;2023-04-06T03:04:45;20.73;;;11.20;;
20124;SDS011;10223;50.862;4.360;2023-04-06T03:07:14;25.53;;;10.97;;
20124;SDS011;10223;50.862;4.360;2023-04-06T03:09:41;17.77;;;10.73;;
20124;SDS011;10223;50.862;4.360;2023-04-06T03:12:08;20.83;;;11.43;;
20124;SDS011;10223;50.862;4.360;2023-04-06T03:14:35;22.07;;;11.07;;
20124;SDS011;10223;50.862;4.360;2023-04-06T03:17:02;21.63;;;11.37;;
20124;SDS011;10223;50.862;4.360;2023-04-06T03:19:29;21.93;;;10.97;;
20124;SDS011;10223;50.862;4.360;2023-04-06T03:21:56;20.50;;;11.03;;
20124;SDS011;10223;50.862;4.360;2023-04-06T03:24:24;24.53;;;12.10;;
20124;SDS011;10223;50.862;4.360;2023-04-06T03:26:51;21.97;;;11.83;;
20124;SDS011;10223;50.862;4.360;2023-04-06T03:29:18;20.43;;;11.27;;
20124;SDS011;10223;50.862;4.360;2023-04-06T03:31:45;23.50;;;10.87;;
20124;SDS011;10223;50.862;4.360;2023-04-06T03:34:12;22.57;;;12.27;;
20124;SDS011;10223;50.862;4.360;2023-04-06T03:36:38;25.33;;;12.50;;
20124;SDS011;10223;50.862;4.360;2023-04-06T03:39:05;21.63;;;11.57;;
20124;SDS011;10223;50.862;4.360;2023-04-06T03:41:34;26.73;;;13.40;;
20124;SDS011;10223;50.862;4.360;2023-04-06T03:44:01;20.33;;;11.93;;
20124;SDS011;10223;50.862;4.360;2023-04-06T03:46:28;23.60;;;11.80;;
20124;SDS011;10223;50.862;4.360;2023-04-06T03:48:55;23.30;;;11.37;;
20124;SDS011;10223;50.862;4.360;2023-04-06T03:51:21;22.70;;;11.80;;
20124;SDS011;10223;50.862;4.360;2023-04-06T03:53:48;23.33;;;11.97;;
20124;SDS011;10223;50.862;4.360;2023-04-06T03:56:16;23.33;;;11.83;;
20124;SDS011;10223;50.862;4.360;2023-04-06T03:58:44;23.33;;;11.20;;
20124;SDS011;10223;50.862;4.360;2023-04-06T04:01:15;17.30;;;9.60;;
20124;SDS011;10223;50.862;4.360;2023-04-06T04:03:42;21.73;;;11.47;;
20124;SDS011;10223;50.862;4.360;2023-04-06T04:06:09;18.07;;;10.63;;
20124;SDS011;10223;50.862;4.360;2023-04-06T04:08:36;21.47;;;11.13;;
20124;SDS011;10223;50.862;4.360;2023-04-06T04:11:03;23.80;;;11.70;;
20124;SDS011;10223;50.862;4.360;2023-04-06T04:13:30;24.97;;;11.33;;
20124;SDS011;10223;50.862;4.360;2023-04-06T04:15:58;20.37;;;11.23;;
20124;SDS011;10223;50.862;4.360;2023-04-06T04:18:25;19.37;;;10.43;;
20124;SDS011;10223;50.862;4.360;2023-04-06T04:20:52;22.57;;;10.97;;
20124;SDS011;10223;50.862;4.360;2023-04-06T04:23:19;20.47;;;10.37;;
20124;SDS011;10223;50.862;4.360;2023-04-06T04:25:46;18.00;;;10.43;;
20124;SDS011;10223;50.862;4.360;2023-04-06T04:28:13;20.93;;;12.07;;
20124;SDS011;10223;50.862;4.360;2023-04-06T04:30:40;21.87;;;11.23;;
20124;SDS011;10223;50.862;4.360;2023-04-06T04:33:08;25.20;;;11.00;;
20124;SDS011;10223;50.862;4.360;2023-04-06T04:35:35;21.73;;;11.37;;
20124;SDS011;10223;50.862;4.360;2023-04-06T04:38:02;22.10;;;11.43;;
20124;SDS011;10223;50.862;4.360;2023-04-06T04:40:29;20.60;;;11.03;;
20124;SDS011;10223;50.862;4.360;2023-04-06T04:42:56;25.87;;;12.20;;
20124;SDS011;10223;50.862;4.360;2023-04-06T04:45:23;25.33;;;12.03;;
20124;SDS011;10223;50.862;4.360;2023-04-06T04:47:49;20.60;;;11.27;;
20124;SDS011;10223;50.862;4.360;2023-04-06T04:50:18;23.40;;;12.83;;
20124;SDS011;10223;50.862;4.360;2023-04-06T04:52:45;24.67;;;11.77;;
20124;SDS011;10223;50.862;4.360;2023-04-06T04:55:12;23.77;;;12.63;;
20124;SDS011;10223;50.862;4.360;2023-04-06T04:57:39;26.27;;;11.50;;
20124;SDS011;10223;50.862;4.360;2023-04-06T05:00:06;24.47;;;12.57;;
20124;SDS011;10223;50.862;4.360;2023-04-06T05:02:34;25.57;;;11.40;;
20124;SDS011;10223;50.862;4.360;2023-04-06T05:05:01;22.87;;;11.63;;
20124;SDS011;10223;50.862;4.360;2023-04-06T05:07:29;25.90;;;12.40;;
20124;SDS011;10223;50.862;4.360;2023-04-06T05:09:56;24.83;;;12.63;;
20124;SDS011;10223;50.862;4.360;2023-04-06T05:12:23;27.20;;;12.63;;
20124;SDS011;10223;50.862;4.360;2023-04-06T05:14:50;25.23;;;11.90;;
20124;SDS011;10223;50.862;4.360;2023-04-06T05:17:17;26.40;;;12.30;;
20124;SDS011;10223;50.862;4.360;2023-04-06T05:19:44;28.37;;;12.53;;
20124;SDS011;10223;50.862;4.360;2023-04-06T05:22:11;27.13;;;12.17;;
20124;SDS011;10223;50.862;4.360;2023-04-06T05:24:40;25.00;;;12.53;;
20124;SDS011;10223;50.862;4.360;2023-04-06T05:27:07;30.23;;;13.43;;
20124;SDS011;10223;50.862;4.360;2023-04-06T05:29:34;29.30;;;12.27;;
20124;SDS011;10223;50.862;4.360;2023-04-06T05:32:01;28.17;;;11.97;;
20124;SDS011;10223;50.862;4.360;2023-04-06T05:34:28;30.07;;;13.20;;
20124;SDS011;10223;50.862;4.360;2023-04-06T05:36:55;24.80;;;12.13;;
20124;SDS011;10223;50.862;4.360;2023-04-06T05:39:22;25.50;;;12.67;;
20124;SDS011;10223;50.862;4.360;2023-04-06T05:41:50;29.03;;;12.40;;
20124;SDS011;10223;50.862;4.360;2023-04-06T05:44:17;29.00;;;13.17;;
20124;SDS011;10223;50.862;4.360;2023-04-06T05:46:44;22.83;;;12.40;;
20124;SDS011;10223;50.862;4.360;2023-04-06T05:49:11;28.53;;;13.37;;
20124;SDS011;10223;50.862;4.360;2023-04-06T05:51:38;22.20;;;12.83;;
20124;SDS011;10223;50.862;4.360;2023-04-06T05:54:05;26.50;;;13.53;;
20124;SDS011;10223;50.862;4.360;2023-04-06T05:56:32;25.87;;;12.73;;
20124;SDS011;10223;50.862;4.360;2023-04-06T05:59:00;29.73;;;12.43;;
20124;SDS011;10223;50.862;4.360;2023-04-06T06:01:27;34.33;;;13.23;;
20124;SDS011;10223;50.862;4.360;2023-04-06T06:03:54;28.80;;;13.47;;
20124;SDS011;10223;50.862;4.360;2023-04-06T06:06:21;27.70;;;14.03;;
20124;SDS011;10223;50.862;4.360;2023-04-06T06:08:48;31.47;;;13.97;;
20124;SDS011;10223;50.862;4.360;2023-04-06T06:11:15;26.00;;;12.60;;
20124;SDS011;10223;50.862;4.360;2023-04-06T06:13:42;25.00;;;12.60;;
20124;SDS011;10223;50.862;4.360;2023-04-06T06:16:10;32.47;;;14.80;;
20124;SDS011;10223;50.862;4.360;2023-04-06T06:18:37;28.63;;;14.77;;
20124;SDS011;10223;50.862;4.360;2023-04-06T06:21:04;30.90;;;14.30;;
20124;SDS011;10223;50.862;4.360;2023-04-06T06:23:31;32.53;;;14.83;;
20124;SDS011;10223;50.862;4.360;2023-04-06T06:25:58;28.67;;;13.97;;
20124;SDS011;10223;50.862;4.360;2023-04-06T06:28:26;29.40;;;13.03;;
20124;SDS011;10223;50.862;4.360;2023-04-06T06:30:52;29.97;;;13.63;;
20124;SDS011;10223;50.862;4.360;2023-04-06T06:33:21;35.10;;;14.23;;
20124;SDS011;10223;50.862;4.360;2023-04-06T06:35:48;28.47;;;13.47;;
20124;SDS011;10223;50.862;4.360;2023-04-06T06:38:15;34.17;;;14.63;;
20124;SDS011;10223;50.862;4.360;2023-04-06T06:40:42;26.97;;;13.43;;
20124;SDS011;10223;50.862;4.360;2023-04-06T06:43:09;27.47;;;14.10;;
20124;SDS011;10223;50.862;4.360;2023-04-06T06:45:36;29.67;;;13.20;;
20124;SDS011;10223;50.862;4.360;2023-04-06T06:48:03;24.73;;;14.20;;
20124;SDS011;10223;50.862;4.360;2023-04-06T06:50:31;23.83;;;13.13;;
20124;SDS011;10223;50.862;4.360;2023-04-06T06:52:58;31.27;;;14.03;;
20124;SDS011;10223;50.862;4.360;2023-04-06T06:55:25;32.70;;;13.97;;
20124;SDS011;10223;50.862;4.360;2023-04-06T06:57:52;27.07;;;14.77;;
20124;SDS011;10223;50.862;4.360;2023-04-06T07:00:19;27.00;;;13.70;;
20124;SDS011;10223;50.862;4.360;2023-04-06T07:02:47;26.70;;;14.77;;
20124;SDS011;10223;50.862;4.360;2023-04-06T07:05:14;24.97;;;13.83;;
20124;SDS011;10223;50.862;4.360;2023-04-06T07:07:43;29.30;;;12.90;;
20124;SDS011;10223;50.862;4.360;2023-04-06T07:10:10;24.13;;;12.40;;
20124;SDS011;10223;50.862;4.360;2023-04-06T07:12:37;28.07;;;11.90;;
20124;SDS011;10223;50.862;4.360;2023-04-06T07:15:05;24.50;;;12.33;;
20124;SDS011;10223;50.862;4.360;2023-04-06T07:17:32;28.03;;;13.30;;
20124;SDS011;10223;50.862;4.360;2023-04-06T07:19:59;32.27;;;12.70;;
20124;SDS011;10223;50.862;4.360;2023-04-06T07:22:26;20.17;;;11.20;;
20124;SDS011;10223;50.862;4.360;2023-04-06T07:24:55;26.77;;;11.03;;
20124;SDS011;10223;50.862;4.360;2023-04-06T07:27:22;24.97;;;10.80;;
20124;SDS011;10223;50.862;4.360;2023-04-06T07:29:48;25.83;;;11.43;;
20124;SDS011;10223;50.862;4.360;2023-04-06T07:32:15;25.70;;;12.27;;
20124;SDS011;10223;50.862;4.360;2023-04-06T07:34:42;23.23;;;11.60;;
20124;SDS011;10223;50.862;4.360;2023-04-06T07:37:10;23.80;;;11.50;;
20124;SDS011;10223;50.862;4.360;2023-04-06T07:39:37;16.93;;;9.90;;
20124;SDS011;10223;50.862;4.360;2023-04-06T07:42:06;18.30;;;9.57;;
20124;SDS011;10223;50.862;4.360;2023-04-06T07:44:33;17.43;;;8.73;;
20124;SDS011;10223;50.862;4.360;2023-04-06T07:47:00;15.93;;;9.20;;
20124;SDS011;10223;50.862;4.360;2023-04-06T07:49:27;20.60;;;9.03;;
20124;SDS011;10223;50.862;4.360;2023-04-06T07:51:54;16.57;;;8.93;;
20124;SDS011;10223;50.862;4.360;2023-04-06T07:54:22;13.20;;;7.57;;
20124;SDS011;10223;50.862;4.360;2023-04-06T07:56:49;16.17;;;7.13;;
20124;SDS011;10223;50.862;4.360;2023-04-06T07:59:17;15.90;;;7.93;;
20124;SDS011;10223;50.862;4.360;2023-04-06T08:01:44;17.33;;;8.67;;
20124;SDS011;10223;50.862;4.360;2023-04-06T08:04:11;26.17;;;8.73;;
20124;SDS011;10223;50.862;4.360;2023-04-06T08:06:38;14.13;;;7.30;;
20124;SDS011;10223;50.862;4.360;2023-04-06T08:09:06;17.37;;;7.87;;
20124;SDS011;10223;50.862;4.360;2023-04-06T08:11:33;15.97;;;7.70;;
20124;SDS011;10223;50.862;4.360;2023-04-06T08:14:00;15.07;;;7.30;;
20124;SDS011;10223;50.862;4.360;2023-04-06T08:16:28;13.97;;;6.77;;
20124;SDS011;10223;50.862;4.360;2023-04-06T08:18:55;18.13;;;7.97;;
20124;SDS011;10223;50.862;4.360;2023-04-06T08:21:22;12.73;;;7.37;;
20124;SDS011;10223;50.862;4.360;2023-04-06T08:23:49;15.03;;;7.87;;
20124;SDS011;10223;50.862;4.360;2023-04-06T08:26:16;12.13;;;7.50;;
20124;SDS011;10223;50.862;4.360;2023-04-06T08:28:43;15.10;;;8.13;;
20124;SDS011;10223;50.862;4.360;2023-04-06T08:31:10;16.33;;;8.07;;
20124;SDS011;10223;50.862;4.360;2023-04-06T08:33:38;12.73;;;8.13;;
20124;SDS011;10223;50.862;4.360;2023-04-06T08:36:09;16.10;;;7.27;;
20124;SDS011;10223;50.862;4.360;2023-04-06T08:38:37;12.87;;;7.27;;
20124;SDS011;10223;50.862;4.360;2023-04-06T08:41:07;14.87;;;7.90;;
20124;SDS011;10223;50.862;4.360;2023-04-06T08:43:36;23.70;;;8.87;;
20124;SDS011;10223;50.862;4.360;2023-04-06T08:46:09;12.87;;;7.40;;
20124;SDS011;10223;50.862;4.360;2023-04-06T08:48:36;19.47;;;8.87;;
20124;SDS011;10223;50.862;4.360;2023-04-06T08:51:06;12.77;;;7.87;;
20124;SDS011;10223;50.862;4.360;2023-04-06T08:53:34;18.50;;;9.17;;
20124;SDS011;10223;50.862;4.360;2023-04-06T08:56:02;15.80;;;8.80;;
20124;SDS011;10223;50.862;4.360;2023-04-06T08:58:32;16.83;;;8.40;;
20124;SDS011;10223;50.862;4.360;2023-04-06T09:01:02;18.63;;;9.50;;
20124;SDS011;10223;50.862;4.360;2023-04-06T09:03:33;15.73;;;9.23;;
20124;SDS011;10223;50.862;4.360;2023-04-06T09:06:04;15.23;;;9.00;;
20124;SDS011;10223;50.862;4.360;2023-04-06T09:08:32;17.80;;;9.70;;
20124;SDS011;10223;50.862;4.360;2023-04-06T09:11:00;20.07;;;9.23;;
20124;SDS011;10223;50.862;4.360;2023-04-06T09:13:27;17.83;;;9.00;;
20124;SDS011;10223;50.862;4.360;2023-04-06T09:16:00;16.03;;;9.93;;
20124;SDS011;10223;50.862;4.360;2023-04-06T09:18:29;21.73;;;9.70;;
20124;SDS011;10223;50.862;4.360;2023-04-06T09:20:57;15.70;;;8.93;;
20124;SDS011;10223;50.862;4.360;2023-04-06T09:23:26;19.00;;;8.67;;
20124;SDS011;10223;50.862;4.360;2023-04-06T09:26:03;14.07;;;7.63;;
20124;SDS011;10223;50.862;4.360;2023-04-06T09:28:41;20.03;;;10.50;;
20124;SDS011;10223;50.862;4.360;2023-04-06T09:31:11;15.73;;;8.57;;
20124;SDS011;10223;50.862;4.360;2023-04-06T09:33:40;18.97;;;9.73;;
20124;SDS011;10223;50.862;4.360;2023-04-06T09:36:07;27.07;;;9.63;;
20124;SDS011;10223;50.862;4.360;2023-04-06T09:38:37;13.60;;;8.03;;
20124;SDS011;10223;50.862;4.360;2023-04-06T09:41:05;13.63;;;8.57;;
20124;SDS011;10223;50.862;4.360;2023-04-06T09:43:32;13.77;;;7.10;;
20124;SDS011;10223;50.862;4.360;2023-04-06T09:46:00;18.90;;;9.10;;
20124;SDS011;10223;50.862;4.360;2023-04-06T09:48:29;13.83;;;8.17;;
20124;SDS011;10223;50.862;4.360;2023-04-06T09:50:58;17.87;;;9.20;;
20124;SDS011;10223;50.862;4.360;2023-04-06T09:53:28;20.20;;;9.00;;
20124;SDS011;10223;50.862;4.360;2023-04-06T09:55:59;13.97;;;8.37;;
20124;SDS011;10223;50.862;4.360;2023-04-06T09:58:31;13.63;;;7.07;;
20124;SDS011;10223;50.862;4.360;2023-04-06T10:01:02;18.90;;;7.17;;
20124;SDS011;10223;50.862;4.360;2023-04-06T10:03:40;13.60;;;7.40;;
20124;SDS011;10223;50.862;4.360;2023-04-06T10:06:17;14.97;;;7.87;;
20124;SDS011;10223;50.862;4.360;2023-04-06T10:08:47;13.97;;;7.67;;
20124;SDS011;10223;50.862;4.360;2023-04-06T10:11:20;15.00;;;8.23;;
20124;SDS011;10223;50.862;4.360;2023-04-06T10:13:48;16.97;;;8.07;;
20124;SDS011;10223;50.862;4.360;2023-04-06T10:16:16;16.33;;;8.40;;
20124;SDS011;10223;50.862;4.360;2023-04-06T10:18:44;14.90;;;8.20;;
20124;SDS011;10223;50.862;4.360;2023-04-06T10:21:14;14.77;;;7.57;;
20124;SDS011;10223;50.862;4.360;2023-04-06T10:23:46;16.57;;;8.00;;
20124;SDS011;10223;50.862;4.360;2023-04-06T10:26:15;14.53;;;8.13;;
20124;SDS011;10223;50.862;4.360;2023-04-06T10:28:45;12.13;;;7.23;;
20124;SDS011;10223;50.862;4.360;2023-04-06T10:31:14;17.47;;;9.13;;
20124;SDS011;10223;50.862;4.360;2023-04-06T10:33:53;16.53;;;8.27;;
20124;SDS011;10223;50.862;4.360;2023-04-06T10:36:22;14.27;;;7.43;;
20124;SDS011;10223;50.862;4.360;2023-04-06T10:38:53;17.23;;;8.33;;
20124;SDS011;10223;50.862;4.360;2023-04-06T10:41:22;14.10;;;7.83;;
20124;SDS011;10223;50.862;4.360;2023-04-06T10:43:56;16.97;;;8.87;;
20124;SDS011;10223;50.862;4.360;2023-04-06T10:46:27;16.67;;;9.43;;
20124;SDS011;10223;50.862;4.360;2023-04-06T10:48:57;17.63;;;9.60;;
20124;SDS011;10223;50.862;4.360;2023-04-06T10:51:38;16.77;;;9.00;;
20124;SDS011;10223;50.862;4.360;2023-04-06T10:54:06;17.43;;;10.20;;
20124;SDS011;10223;50.862;4.360;2023-04-06T10:56:35;18.27;;;9.63;;
20124;SDS011;10223;50.862;4.360;2023-04-06T10:59:08;15.53;;;8.57;;
20124;SDS011;10223;50.862;4.360;2023-04-06T11:01:35;16.43;;;8.40;;
20124;SDS011;10223;50.862;4.360;2023-04-06T11:04:02;17.57;;;8.87;;
20124;SDS011;10223;50.862;4.360;2023-04-06T11:06:29;16.63;;;9.50;;
20124;SDS011;10223;50.862;4.360;2023-04-06T11:08:57;17.77;;;8.67;;
20124;SDS011;10223;50.862;4.360;2023-04-06T11:11:25;19.67;;;9.50;;
20124;SDS011;10223;50.862;4.360;2023-04-06T11:13:53;16.70;;;8.93;;
20124;SDS011;10223;50.862;4.360;2023-04-06T11:16:22;15.97;;;9.20;;
20124;SDS011;10223;50.862;4.360;2023-04-06T11:18:51;18.77;;;10.43;;
20124;SDS011;10223;50.862;4.360;2023-04-06T11:21:20;14.93;;;9.20;;
20124;SDS011;10223;50.862;4.360;2023-04-06T11:24:03;14.20;;;8.00;;
20124;SDS011;10223;50.862;4.360;2023-04-06T11:26:31;17.40;;;8.90;;
20124;SDS011;10223;50.862;4.360;2023-04-06T11:29:02;15.73;;;9.83;;
20124;SDS011;10223;50.862;4.360;2023-04-06T11:31:31;16.80;;;9.10;;
20124;SDS011;10223;50.862;4.360;2023-04-06T11:34:08;15.93;;;8.97;;
20124;SDS011;10223;50.862;4.360;2023-04-06T11:36:36;15.27;;;9.20;;
20124;SDS011;10223;50.862;4.360;2023-04-06T11:39:06;18.23;;;9.60;;
20124;SDS011;10223;50.862;4.360;2023-04-06T11:41:34;16.60;;;9.50;;
20124;SDS011;10223;50.862;4.360;2023-04-06T11:44:01;17.13;;;9.67;;
20124;SDS011;10223;50.862;4.360;2023-04-06T11:46:28;15.47;;;9.67;;
20124;SDS011;10223;50.862;4.360;2023-04-06T11:49:00;17.90;;;10.40;;
20124;SDS011;10223;50.862;4.360;2023-04-06T11:51:28;18.57;;;9.90;;
20124;SDS011;10223;50.862;4.360;2023-04-06T11:53:55;20.20;;;10.73;;
20124;SDS011;10223;50.862;4.360;2023-04-06T11:56:22;18.30;;;11.03;;
20124;SDS011;10223;50.862;4.360;2023-04-06T11:58:51;17.00;;;9.90;;
20124;SDS011;10223;50.862;4.360;2023-04-06T12:01:18;19.23;;;11.00;;
20124;SDS011;10223;50.862;4.360;2023-04-06T12:03:48;18.57;;;11.67;;
20124;SDS011;10223;50.862;4.360;2023-04-06T12:06:16;18.10;;;11.23;;
20124;SDS011;10223;50.862;4.360;2023-04-06T12:08:45;16.50;;;10.13;;
20124;SDS011;10223;50.862;4.360;2023-04-06T12:11:13;24.13;;;10.73;;
20124;SDS011;10223;50.862;4.360;2023-04-06T12:13:40;16.47;;;9.77;;
20124;SDS011;10223;50.862;4.360;2023-04-06T12:16:07;15.90;;;9.47;;
20124;SDS011;10223;50.862;4.360;2023-04-06T12:18:34;18.70;;;10.13;;
20124;SDS011;10223;50.862;4.360;2023-04-06T12:21:03;15.17;;;10.37;;
20124;SDS011;10223;50.862;4.360;2023-04-06T12:23:30;19.77;;;10.90;;
20124;SDS011;10223;50.862;4.360;2023-04-06T12:25:57;18.27;;;9.53;;
20124;SDS011;10223;50.862;4.360;2023-04-06T12:28:24;19.40;;;10.97;;
20124;SDS011;10223;50.862;4.360;2023-04-06T12:30:52;20.07;;;11.03;;
20124;SDS011;10223;50.862;4.360;2023-04-06T12:33:19;18.70;;;10.80;;
20124;SDS011;10223;50.862;4.360;2023-04-06T12:35:46;18.47;;;10.87;;
20124;SDS011;10223;50.862;4.360;2023-04-06T12:38:14;15.93;;;10.10;;
20124;SDS011;10223;50.862;4.360;2023-04-06T12:40:42;19.10;;;10.53;;
20124;SDS011;10223;50.862;4.360;2023-04-06T12:43:09;18.17;;;10.90;;
20124;SDS011;10223;50.862;4.360;2023-04-06T12:45:36;13.83;;;8.13;;
20124;SDS011;10223;50.862;4.360;2023-04-06T12:48:02;18.63;;;10.80;;
20124;SDS011;10223;50.862;4.360;2023-04-06T12:50:29;18.43;;;10.83;;
20124;SDS011;10223;50.862;4.360;2023-04-06T12:52:56;21.23;;;11.20;;
20124;SDS011;10223;50.862;4.360;2023-04-06T12:55:25;24.83;;;11.37;;
20124;SDS011;10223;50.862;4.360;2023-04-06T12:57:53;19.03;;;11.03;;
20124;SDS011;10223;50.862;4.360;2023-04-06T13:00:20;17.53;;;10.47;;
20124;SDS011;10223;50.862;4.360;2023-04-06T13:02:47;20.23;;;12.50;;
20124;SDS011;10223;50.862;4.360;2023-04-06T13:05:15;13.33;;;8.03;;
20124;SDS011;10223;50.862;4.360;2023-04-06T13:07:44;19.00;;;10.70;;
20124;SDS011;10223;50.862;4.360;2023-04-06T13:10:12;18.13;;;11.17;;
20124;SDS011;10223;50.862;4.360;2023-04-06T13:12:40;17.83;;;11.33;;
20124;SDS011;10223;50.862;4.360;2023-04-06T13:15:07;21.50;;;12.23;;
20124;SDS011;10223;50.862;4.360;2023-04-06T13:17:35;20.67;;;11.90;;
20124;SDS011;10223;50.862;4.360;2023-04-06T13:20:02;19.13;;;10.50;;
20124;SDS011;10223;50.862;4.360;2023-04-06T13:22:31;20.97;;;11.37;;
20124;SDS011;10223;50.862;4.360;2023-04-06T13:24:58;19.03;;;11.07;;
20124;SDS011;10223;50.862;4.360;2023-04-06T13:27:25;19.30;;;10.90;;
20124;SDS011;10223;50.862;4.360;2023-04-06T13:29:53;17.80;;;11.47;;
20124;SDS011;10223;50.862;4.360;2023-04-06T13:32:21;19.90;;;11.30;;
20124;SDS011;10223;50.862;4.360;2023-04-06T13:34:48;20.83;;;12.40;;
20124;SDS011;10223;50.862;4.360;2023-04-06T13:37:15;19.40;;;12.10;;
20124;SDS011;10223;50.862;4.360;2023-04-06T13:39:42;15.77;;;10.20;;
20124;SDS011;10223;50.862;4.360;2023-04-06T13:42:09;16.30;;;10.67;;
20124;SDS011;10223;50.862;4.360;2023-04-06T13:44:36;19.67;;;12.07;;
20124;SDS011;10223;50.862;4.360;2023-04-06T13:47:04;19.53;;;10.37;;
20124;SDS011;10223;50.862;4.360;2023-04-06T13:49:31;21.40;;;11.97;;
20124;SDS011;10223;50.862;4.360;2023-04-06T13:51:58;19.13;;;11.87;;
20124;SDS011;10223;50.862;4.360;2023-04-06T13:54:26;19.93;;;11.80;;
20124;SDS011;10223;50.862;4.360;2023-04-06T13:56:53;19.07;;;11.73;;
20124;SDS011;10223;50.862;4.360;2023-04-06T13:59:21;21.37;;;12.60;;
20124;SDS011;10223;50.862;4.360;2023-04-06T14:01:48;19.60;;;11.20;;
20124;SDS011;10223;50.862;4.360;2023-04-06T14:04:16;18.97;;;11.67;;
20124;SDS011;10223;50.862;4.360;2023-04-06T14:06:44;21.83;;;11.47;;
20124;SDS011;10223;50.862;4.360;2023-04-06T14:09:11;18.23;;;11.97;;
20124;SDS011;10223;50.862;4.360;2023-04-06T14:11:38;19.00;;;11.57;;
20124;SDS011;10223;50.862;4.360;2023-04-06T14:14:05;23.40;;;12.23;;
20124;SDS011;10223;50.862;4.360;2023-04-06T14:16:32;21.53;;;13.27;;
20124;SDS011;10223;50.862;4.360;2023-04-06T14:18:59;21.40;;;14.77;;
20124;SDS011;10223;50.862;4.360;2023-04-06T14:21:27;23.23;;;15.67;;
20124;SDS011;10223;50.862;4.360;2023-04-06T14:23:54;20.70;;;14.10;;
20124;SDS011;10223;50.862;4.360;2023-04-06T14:26:21;24.30;;;14.53;;
20124;SDS011;10223;50.862;4.360;2023-04-06T14:28:49;21.30;;;13.10;;